createdAt,value
2022-07-29T00:01:38.727Z,73.59
2022-07-29T00:04:07.096Z,73.78
2022-07-29T00:06:35.464Z,73.82
2022-07-29T00:09:03.909Z,73.78
2022-07-29T00:11:32.296Z,73.88
2022-07-29T00:14:00.720Z,73.81
2022-07-29T00:16:30.435Z,74.10
2022-07-29T00:19:02.098Z,73.97
2022-07-29T00:21:30.933Z,74.14
2022-07-29T00:23:59.196Z,73.97
2022-07-29T00:26:32.478Z,74.10
2022-07-29T00:29:32.534Z,74.15
2022-07-29T00:31:51.940Z,74.24
2022-07-29T00:34:38.035Z,74.34
2022-07-29T00:37:06.331Z,74.23
2022-07-29T00:39:36.395Z,74.41
2022-07-29T00:42:05.634Z,74.31
2022-07-29T00:44:39.458Z,74.46
2022-07-29T00:47:09.879Z,74.43
2022-07-29T00:49:38.838Z,74.71
2022-07-29T00:52:08.358Z,74.67
2022-07-29T00:54:39.854Z,74.81
2022-07-29T00:57:13.234Z,74.87
2022-07-29T00:59:42.077Z,75.04
2022-07-29T01:02:11.923Z,75.03
2022-07-29T01:04:40.636Z,75.12
2022-07-29T01:07:09.444Z,75.05
2022-07-29T01:09:45.981Z,75.00
2022-07-29T01:12:19.460Z,75.28
2022-07-29T01:14:49.575Z,75.25
2022-07-29T01:17:26.294Z,75.15
2022-07-29T01:20:04.455Z,75.14
2022-07-29T01:22:50.108Z,75.35
2022-07-29T01:25:50.672Z,75.24
2022-07-29T01:28:49.149Z,75.13
2022-07-29T01:31:26.420Z,75.26
2022-07-29T01:34:07.482Z,75.20
2022-07-29T01:36:42.393Z,75.31
2022-07-29T01:39:19.018Z,75.31
2022-07-29T01:42:00.411Z,75.39
2022-07-29T01:44:37.725Z,75.46
2022-07-29T01:47:17.990Z,75.53
2022-07-29T01:49:53.741Z,75.58
2022-07-29T01:52:29.678Z,75.51
2022-07-29T01:55:04.637Z,75.84
2022-07-29T01:57:36.268Z,75.91
2022-07-29T02:00:07.896Z,75.76
2022-07-29T02:02:37.814Z,75.78
2022-07-29T02:05:08.634Z,75.80
2022-07-29T02:07:38.872Z,75.67
2022-07-29T02:10:11.433Z,75.81
2022-07-29T02:12:41.063Z,75.83
2022-07-29T02:15:13.446Z,75.88
2022-07-29T02:17:50.976Z,75.76
2022-07-29T02:20:19.742Z,76.00
2022-07-29T02:22:49.001Z,76.04
2022-07-29T02:25:19.074Z,76.09
2022-07-29T02:27:49.395Z,76.31
2022-07-29T02:30:20.010Z,76.21
2022-07-29T02:32:51.489Z,76.24
2022-07-29T02:35:20.412Z,76.21
2022-07-29T02:38:10.199Z,76.20
2022-07-29T02:40:41.845Z,76.25
2022-07-29T02:43:12.283Z,76.23
2022-07-29T02:45:41.981Z,76.28
2022-07-29T02:48:17.038Z,76.16
2022-07-29T02:50:52.013Z,76.39
2022-07-29T02:53:24.716Z,76.43
2022-07-29T02:55:58.228Z,76.36
2022-07-29T02:58:31.377Z,76.49
2022-07-29T03:01:05.146Z,76.44
2022-07-29T03:03:39.444Z,76.54
2022-07-29T03:06:09.539Z,76.42
2022-07-29T03:08:59.673Z,76.31
2022-07-29T03:11:46.076Z,76.52
2022-07-29T03:14:18.840Z,76.43
2022-07-29T03:16:49.758Z,76.52
2022-07-29T03:19:18.625Z,76.51
2022-07-29T03:21:46.985Z,76.64
2022-07-29T03:24:31.981Z,76.68
2022-07-29T03:27:00.899Z,76.68
2022-07-29T03:29:33.970Z,76.59
2022-07-29T03:32:07.328Z,76.74
2022-07-29T03:34:39.152Z,76.76
2022-07-29T03:37:08.301Z,76.84
2022-07-29T03:39:42.846Z,76.81
2022-07-29T03:42:15.625Z,76.73
2022-07-29T03:44:47.565Z,76.78
2022-07-29T03:47:21.443Z,76.69
2022-07-29T03:49:54.662Z,76.83
2022-07-29T03:52:23.722Z,76.87
2022-07-29T03:54:52.214Z,76.89
2022-07-29T03:57:22.029Z,76.80
2022-07-29T03:59:52.731Z,76.85
2022-07-29T04:02:27.358Z,76.97
2022-07-29T04:04:58.714Z,76.88
2022-07-29T04:07:27.079Z,76.99
2022-07-29T04:09:55.335Z,76.98
2022-07-29T04:12:23.649Z,76.89
2022-07-29T04:14:52.134Z,76.96
2022-07-29T04:17:21.808Z,77.11
2022-07-29T04:19:50.072Z,77.17
2022-07-29T04:22:18.415Z,77.29
2022-07-29T04:24:46.675Z,77.32
2022-07-29T04:27:14.976Z,77.08
2022-07-29T04:29:56.729Z,77.08
2022-07-29T04:32:28.008Z,77.05
2022-07-29T04:34:56.277Z,77.10
2022-07-29T04:37:24.682Z,77.01
2022-07-29T04:39:52.968Z,77.06
2022-07-29T04:42:25.246Z,77.22
2022-07-29T04:44:56.169Z,77.12
2022-07-29T04:47:25.828Z,77.18
2022-07-29T04:49:54.120Z,77.01
2022-07-29T04:52:22.413Z,77.08
2022-07-29T04:54:51.558Z,77.22
2022-07-29T04:57:19.808Z,76.86
2022-07-29T04:59:48.078Z,77.09
2022-07-29T05:02:16.390Z,77.17
2022-07-29T05:04:46.035Z,77.05
2022-07-29T05:07:15.186Z,76.91
2022-07-29T05:09:43.434Z,76.98
2022-07-29T05:12:11.887Z,77.02
2022-07-29T05:14:40.207Z,76.87
2022-07-29T05:17:08.484Z,77.02
2022-07-29T05:19:39.300Z,76.89
2022-07-29T05:22:09.387Z,77.13
2022-07-29T05:24:38.318Z,76.88
2022-07-29T05:27:06.863Z,76.78
2022-07-29T05:29:43.138Z,76.97
2022-07-29T05:32:14.165Z,76.71
2022-07-29T05:34:50.271Z,76.51
2022-07-29T05:37:21.518Z,76.70
2022-07-29T05:39:56.197Z,76.32
2022-07-29T05:42:25.843Z,76.41
2022-07-29T05:44:54.719Z,76.28
2022-07-29T05:47:23.050Z,76.03
2022-07-29T05:49:51.621Z,76.07
2022-07-29T05:52:21.619Z,76.19
2022-07-29T05:54:49.997Z,75.79
2022-07-29T05:57:18.889Z,75.68
2022-07-29T05:59:47.242Z,75.26
2022-07-29T06:02:15.750Z,74.95
2022-07-29T06:04:44.171Z,74.81
2022-07-29T06:07:12.627Z,74.95
2022-07-29T06:09:42.394Z,74.63
2022-07-29T06:12:11.252Z,74.39
2022-07-29T06:14:39.614Z,74.24
2022-07-29T06:17:07.945Z,74.14
2022-07-29T06:19:37.243Z,73.56
2022-07-29T06:22:05.854Z,73.26
2022-07-29T06:24:34.187Z,72.42
2022-07-29T06:27:03.818Z,72.01
2022-07-29T06:29:32.163Z,71.30
2022-07-29T06:32:00.413Z,70.65
2022-07-29T06:34:28.686Z,70.14
2022-07-29T06:36:57.055Z,69.96
2022-07-29T06:39:25.393Z,69.79
2022-07-29T06:41:54.105Z,69.62
2022-07-29T06:44:23.785Z,69.55
2022-07-29T06:46:52.657Z,69.14
2022-07-29T06:49:21.014Z,68.84
2022-07-29T06:51:49.313Z,68.01
2022-07-29T06:54:18.116Z,67.56
2022-07-29T06:56:47.152Z,67.22
2022-07-29T06:59:15.573Z,66.64
2022-07-29T07:01:46.152Z,66.31
2022-07-29T07:04:15.699Z,65.52
2022-07-29T07:06:45.439Z,64.44
2022-07-29T07:09:13.756Z,63.60
2022-07-29T07:11:42.028Z,62.88
2022-07-29T07:14:10.274Z,62.46
2022-07-29T07:16:38.602Z,61.98
2022-07-29T07:19:08.441Z,61.63
2022-07-29T07:21:36.747Z,61.70
2022-07-29T07:24:05.651Z,61.24
2022-07-29T07:26:34.306Z,61.02
2022-07-29T07:29:02.639Z,60.79
2022-07-29T07:31:31.112Z,60.80
2022-07-29T07:33:59.574Z,60.84
2022-07-29T07:36:29.206Z,60.54
2022-07-29T07:38:57.709Z,60.34
2022-07-29T07:41:26.572Z,59.90
2022-07-29T07:44:01.068Z,59.36
2022-07-29T07:46:29.485Z,59.31
2022-07-29T07:48:57.878Z,58.66
2022-07-29T07:51:26.157Z,58.13
2022-07-29T07:53:55.843Z,57.61
2022-07-29T07:56:25.983Z,57.27
2022-07-29T07:58:54.289Z,56.64
2022-07-29T08:01:23.986Z,56.11
2022-07-29T08:03:52.497Z,55.82
2022-07-29T08:06:20.817Z,55.71
2022-07-29T08:08:49.086Z,55.60
2022-07-29T08:11:19.010Z,55.40
2022-07-29T08:13:48.413Z,55.81
2022-07-29T08:16:16.994Z,56.16
2022-07-29T08:18:47.698Z,56.33
2022-07-29T08:21:17.294Z,56.37
2022-07-29T08:23:58.943Z,56.53
2022-07-29T08:26:30.538Z,56.46
2022-07-29T08:28:58.836Z,56.49
2022-07-29T08:31:27.224Z,56.58
2022-07-29T08:33:57.182Z,56.51
2022-07-29T08:36:25.888Z,56.43
2022-07-29T08:38:54.274Z,56.63
2022-07-29T08:41:23.193Z,56.34
2022-07-29T08:43:53.951Z,56.04
2022-07-29T08:46:23.045Z,55.44
2022-07-29T08:48:51.824Z,54.58
2022-07-29T08:51:22.757Z,54.02
2022-07-29T08:53:52.540Z,53.65
2022-07-29T08:56:22.483Z,53.21
2022-07-29T08:58:52.763Z,52.97
2022-07-29T09:01:36.289Z,53.34
2022-07-29T09:04:11.509Z,53.12
2022-07-29T09:06:44.672Z,53.35
2022-07-29T09:09:14.620Z,53.03
2022-07-29T09:11:43.668Z,52.80
2022-07-29T09:14:16.211Z,52.63
2022-07-29T09:16:54.266Z,52.76
2022-07-29T09:19:29.311Z,52.74
2022-07-29T09:21:59.000Z,52.48
2022-07-29T09:24:38.571Z,52.13
2022-07-29T09:27:13.304Z,52.12
2022-07-29T09:29:43.213Z,52.13
2022-07-29T09:32:12.507Z,52.05
2022-07-29T09:34:40.871Z,51.81
2022-07-29T09:37:09.349Z,51.75
2022-07-29T09:39:46.438Z,51.52
2022-07-29T09:42:15.911Z,51.07
2022-07-29T09:44:52.035Z,50.19
2022-07-29T09:47:22.780Z,49.96
2022-07-29T09:49:58.903Z,49.43
2022-07-29T09:52:28.769Z,49.17
2022-07-29T09:55:07.698Z,48.95
2022-07-29T09:57:36.057Z,48.97
2022-07-29T10:00:09.561Z,48.85
2022-07-29T10:02:41.460Z,48.59
2022-07-29T10:05:21.958Z,48.60
2022-07-29T10:07:54.109Z,48.87
2022-07-29T10:10:25.893Z,48.28
2022-07-29T10:12:57.563Z,47.74
2022-07-29T10:15:32.963Z,47.77
2022-07-29T10:18:02.074Z,47.46
2022-07-29T10:20:30.510Z,47.17
2022-07-29T10:22:59.009Z,46.95
2022-07-29T10:25:28.254Z,47.26
2022-07-29T10:27:57.347Z,47.01
2022-07-29T10:30:29.653Z,46.64
2022-07-29T10:33:30.598Z,45.79
2022-07-29T10:36:17.457Z,45.34
2022-07-29T10:38:57.305Z,45.45
2022-07-29T10:41:50.738Z,45.58
2022-07-29T10:44:23.969Z,45.71
2022-07-29T10:46:55.403Z,45.66
2022-07-29T10:49:25.906Z,45.79
2022-07-29T10:52:05.979Z,45.70
2022-07-29T10:54:51.062Z,45.05
2022-07-29T10:57:52.523Z,45.57
2022-07-29T11:00:34.275Z,45.21
2022-07-29T11:03:04.622Z,45.00
2022-07-29T11:05:59.476Z,44.24
2022-07-29T11:08:28.979Z,44.24
2022-07-29T11:11:33.223Z,43.87
2022-07-29T11:14:03.226Z,43.81
2022-07-29T11:17:06.919Z,43.65
2022-07-29T11:19:40.130Z,43.93
2022-07-29T11:22:12.262Z,44.02
2022-07-29T11:24:50.427Z,44.29
2022-07-29T11:27:23.016Z,43.96
2022-07-29T11:29:54.328Z,44.21
2022-07-29T11:32:29.343Z,44.21
2022-07-29T11:35:37.608Z,43.41
2022-07-29T11:38:27.930Z,43.22
2022-07-29T11:41:25.378Z,42.67
2022-07-29T11:43:57.041Z,42.90
2022-07-29T11:46:49.875Z,42.60
2022-07-29T11:49:31.539Z,43.03
2022-07-29T11:52:03.743Z,42.76
2022-07-29T11:54:57.257Z,42.54
2022-07-29T11:57:36.028Z,42.46
2022-07-29T12:00:12.339Z,42.41
2022-07-29T12:02:48.046Z,42.12
2022-07-29T12:05:35.825Z,42.29
2022-07-29T12:08:14.974Z,41.36
2022-07-29T12:10:44.908Z,42.48
2022-07-29T12:13:13.909Z,42.39
2022-07-29T12:15:47.031Z,42.55
2022-07-29T12:18:23.921Z,42.78
2022-07-29T12:21:04.626Z,42.84
2022-07-29T12:23:35.431Z,43.43
2022-07-29T12:26:11.088Z,43.35
2022-07-29T12:28:54.754Z,43.34
2022-07-29T12:31:43.634Z,43.10
2022-07-29T12:34:13.522Z,43.38
2022-07-29T12:36:44.230Z,43.42
2022-07-29T12:39:13.822Z,43.40
2022-07-29T12:41:42.166Z,43.24
2022-07-29T12:44:10.455Z,43.33
2022-07-29T12:46:39.609Z,43.15
2022-07-29T12:49:08.043Z,43.51
2022-07-29T12:51:39.194Z,43.19
2022-07-29T12:54:12.383Z,43.56
2022-07-29T12:56:43.735Z,43.53
2022-07-29T12:59:18.577Z,43.49
2022-07-29T13:01:48.104Z,43.60
2022-07-29T13:04:29.604Z,43.76
2022-07-29T13:07:04.527Z,43.99
2022-07-29T13:09:42.499Z,44.29
2022-07-29T13:12:12.739Z,44.37
2022-07-29T13:14:44.235Z,44.05
2022-07-29T13:17:16.696Z,44.44
2022-07-29T13:19:46.928Z,44.58
2022-07-29T13:22:17.528Z,44.56
2022-07-29T13:24:55.478Z,44.66
2022-07-29T13:27:25.743Z,44.50
2022-07-29T13:29:57.420Z,44.50
2022-07-29T13:32:28.297Z,44.63
2022-07-29T13:34:57.627Z,44.72
2022-07-29T13:37:26.961Z,44.97
2022-07-29T13:39:56.976Z,44.85
2022-07-29T13:42:25.813Z,44.90
2022-07-29T13:44:54.409Z,44.70
2022-07-29T13:47:32.370Z,44.69
2022-07-29T13:50:01.601Z,44.58
2022-07-29T13:54:59.500Z,44.60
2022-07-29T13:57:27.957Z,44.76
2022-07-29T13:59:56.293Z,44.70
2022-07-29T14:02:25.333Z,44.75
2022-07-29T14:04:54.400Z,44.89
2022-07-29T14:07:22.979Z,44.78
2022-07-29T14:09:51.458Z,44.93
2022-07-29T14:12:21.116Z,45.23
2022-07-29T14:14:49.557Z,45.13
2022-07-29T14:17:18.110Z,45.13
2022-07-29T14:19:46.432Z,45.14
2022-07-29T14:22:14.750Z,44.94
2022-07-29T14:24:43.283Z,44.93
2022-07-29T14:27:11.605Z,44.98
2022-07-29T14:29:41.305Z,44.71
2022-07-29T14:32:11.299Z,44.54
2022-07-29T14:34:40.614Z,44.46
2022-07-29T14:37:09.594Z,44.29
2022-07-29T14:39:44.585Z,44.28
2022-07-29T14:42:14.107Z,44.02
2022-07-29T14:44:44.729Z,44.18
2022-07-29T14:47:13.102Z,44.22
2022-07-29T14:49:41.596Z,44.30
2022-07-29T14:52:09.980Z,44.38
2022-07-29T14:54:38.305Z,44.60
2022-07-29T14:57:06.636Z,44.63
2022-07-29T14:59:34.978Z,44.63
2022-07-29T15:02:04.824Z,44.71
2022-07-29T15:04:33.447Z,44.92
2022-07-29T15:07:01.828Z,44.88
2022-07-29T15:09:30.255Z,44.94
2022-07-29T15:11:58.879Z,44.99
2022-07-29T15:14:27.330Z,44.96
2022-07-29T15:16:55.727Z,45.01
2022-07-29T15:19:25.758Z,44.99
2022-07-29T15:21:54.844Z,45.20
2022-07-29T15:24:25.082Z,45.03
2022-07-29T15:26:53.346Z,45.20
2022-07-29T15:29:22.269Z,45.28
2022-07-29T15:31:50.891Z,45.47
2022-07-29T15:34:21.255Z,45.50
2022-07-29T15:36:53.074Z,45.58
2022-07-29T15:39:22.218Z,45.60
2022-07-29T15:41:50.645Z,45.75
2022-07-29T15:44:19.175Z,45.72
2022-07-29T15:47:05.682Z,45.77
2022-07-29T15:49:47.190Z,45.74
2022-07-29T15:52:25.821Z,45.91
2022-07-29T15:54:55.990Z,45.78
2022-07-29T15:57:25.153Z,45.83
2022-07-29T15:59:53.979Z,45.89
2022-07-29T16:02:22.401Z,45.77
2022-07-29T16:04:50.794Z,45.37
2022-07-29T16:07:20.579Z,45.47
2022-07-29T16:09:53.030Z,45.65
2022-07-29T16:12:21.837Z,45.61
2022-07-29T16:14:51.204Z,45.69
2022-07-29T16:17:19.845Z,45.79
2022-07-29T16:19:49.143Z,45.96
2022-07-29T16:22:18.955Z,45.99
2022-07-29T16:24:47.265Z,46.09
2022-07-29T16:27:15.576Z,46.22
2022-07-29T16:29:43.849Z,46.41
2022-07-29T16:32:12.146Z,46.44
2022-07-29T16:34:41.146Z,46.73
2022-07-29T16:37:09.459Z,46.94
2022-07-29T16:39:39.279Z,47.08
2022-07-29T16:42:07.789Z,47.33
2022-07-29T16:44:36.166Z,47.64
2022-07-29T16:47:04.881Z,47.83
2022-07-29T16:49:33.468Z,47.96
2022-07-29T16:52:01.864Z,48.24
2022-07-29T16:54:30.252Z,48.17
2022-07-29T16:57:02.001Z,48.24
2022-07-29T16:59:30.940Z,48.38
2022-07-29T17:02:02.629Z,48.44
2022-07-29T17:04:31.786Z,48.20
2022-07-29T17:07:01.178Z,47.91
2022-07-29T17:09:30.641Z,47.64
2022-07-29T17:12:00.323Z,47.82
2022-07-29T17:14:31.537Z,47.90
2022-07-29T17:17:03.000Z,48.38
2022-07-29T17:19:34.124Z,48.68
2022-07-29T17:22:17.186Z,49.21
2022-07-29T17:24:47.626Z,49.29
2022-07-29T17:27:18.005Z,49.48
2022-07-29T17:29:46.636Z,49.75
2022-07-29T17:32:15.181Z,50.20
2022-07-29T17:34:44.837Z,50.15
2022-07-29T17:37:14.124Z,50.28
2022-07-29T17:39:43.421Z,50.49
2022-07-29T17:42:14.179Z,50.84
2022-07-29T17:44:43.844Z,50.77
2022-07-29T17:47:16.055Z,50.91
2022-07-29T17:49:45.439Z,51.18
2022-07-29T17:52:13.889Z,51.36
2022-07-29T17:54:42.249Z,51.43
2022-07-29T17:57:10.543Z,51.80
2022-07-29T17:59:38.857Z,51.77
2022-07-29T18:02:08.774Z,52.08
2022-07-29T18:04:37.080Z,52.46
2022-07-29T18:07:05.371Z,52.67
2022-07-29T18:09:33.731Z,52.96
2022-07-29T18:12:02.040Z,53.03
2022-07-29T18:14:30.378Z,53.27
2022-07-29T18:16:58.890Z,53.62
2022-07-29T18:19:29.728Z,53.91
2022-07-29T18:22:01.755Z,54.08
2022-07-29T18:24:33.347Z,54.41
2022-07-29T18:27:01.854Z,54.57
2022-07-29T18:29:30.604Z,54.69
2022-07-29T18:31:59.953Z,54.74
2022-07-29T18:34:29.805Z,55.06
2022-07-29T18:36:58.390Z,55.59
2022-07-29T18:39:26.932Z,55.63
2022-07-29T18:41:55.230Z,55.66
2022-07-29T18:44:23.546Z,55.87
2022-07-29T18:46:52.573Z,56.33
2022-07-29T18:49:21.155Z,56.49
2022-07-29T18:51:51.428Z,56.96
2022-07-29T18:54:20.054Z,57.02
2022-07-29T18:56:48.721Z,57.46
2022-07-29T18:59:20.190Z,57.76
2022-07-29T19:01:49.023Z,57.87
2022-07-29T19:04:18.037Z,58.01
2022-07-29T19:06:46.490Z,58.38
2022-07-29T19:09:17.312Z,58.58
2022-07-29T19:11:45.654Z,58.80
2022-07-29T19:14:13.953Z,59.04
2022-07-29T19:16:42.275Z,59.35
2022-07-29T19:19:10.587Z,59.67
2022-07-29T19:21:38.870Z,59.76
2022-07-29T19:24:12.361Z,60.32
2022-07-29T19:26:46.776Z,60.45
2022-07-29T19:29:15.566Z,60.92
2022-07-29T19:31:44.303Z,61.10
2022-07-29T19:34:12.972Z,61.10
2022-07-29T19:36:41.877Z,61.45
2022-07-29T19:39:10.469Z,61.79
2022-07-29T19:41:39.100Z,62.00
2022-07-29T19:44:08.804Z,62.38
2022-07-29T19:46:37.149Z,62.33
2022-07-29T19:49:07.045Z,62.68
2022-07-29T19:51:35.752Z,62.96
2022-07-29T19:54:04.257Z,63.47
2022-07-29T19:56:32.562Z,63.49
2022-07-29T19:59:01.702Z,63.79
2022-07-29T20:01:32.817Z,64.34
2022-07-29T20:04:01.190Z,64.38
2022-07-29T20:06:29.505Z,64.45
2022-07-29T20:08:58.908Z,64.82
2022-07-29T20:11:29.717Z,65.04
2022-07-29T20:13:58.084Z,65.13
2022-07-29T20:16:26.458Z,65.48
2022-07-29T20:18:56.154Z,65.81
2022-07-29T20:21:26.712Z,65.90
2022-07-29T20:23:56.755Z,66.10
2022-07-29T20:26:25.056Z,66.20
2022-07-29T20:28:53.400Z,66.60
2022-07-29T20:31:21.752Z,66.62
2022-07-29T20:33:50.347Z,67.10
2022-07-29T20:36:20.058Z,67.08
2022-07-29T20:38:48.329Z,67.41
2022-07-29T20:41:16.663Z,67.63
2022-07-29T20:43:45.548Z,67.36
2022-07-29T20:46:14.090Z,67.64
2022-07-29T20:48:42.609Z,67.63
2022-07-29T20:51:11.043Z,67.90
2022-07-29T20:53:40.980Z,68.26
2022-07-29T20:56:09.681Z,68.23
2022-07-29T20:58:38.139Z,68.28
2022-07-29T21:01:07.218Z,68.43
2022-07-29T21:03:35.571Z,68.78
2022-07-29T21:06:04.969Z,68.87
2022-07-29T21:08:33.268Z,69.14
2022-07-29T21:11:02.952Z,69.13
2022-07-29T21:13:33.019Z,69.26
2022-07-29T21:16:04.295Z,69.29
2022-07-29T21:18:37.411Z,69.33
2022-07-29T21:21:06.745Z,69.76
2022-07-29T21:23:35.317Z,69.56
2022-07-29T21:26:07.759Z,69.65
2022-07-29T21:28:40.089Z,69.84
2022-07-29T21:31:12.449Z,69.92
2022-07-29T21:33:42.486Z,70.00
2022-07-29T21:36:42.802Z,70.35
2022-07-29T21:39:00.675Z,70.28
2022-07-29T21:41:30.303Z,70.50
2022-07-29T21:43:59.616Z,70.61
2022-07-29T21:46:29.754Z,70.47
2022-07-29T21:48:58.142Z,70.96
2022-07-29T21:51:26.388Z,70.76
2022-07-29T21:53:54.635Z,70.94
2022-07-29T21:56:26.330Z,71.23
2022-07-29T21:58:57.722Z,71.13
2022-07-29T22:01:26.188Z,71.16
2022-07-29T22:03:54.541Z,71.21
2022-07-29T22:06:23.269Z,71.56
2022-07-29T22:08:51.796Z,71.46
2022-07-29T22:11:20.498Z,71.63
2022-07-29T22:13:48.767Z,71.68
2022-07-29T22:16:18.608Z,72.00
2022-07-29T22:18:48.299Z,71.93
2022-07-29T22:21:16.815Z,72.08
2022-07-29T22:23:45.116Z,72.19
2022-07-29T22:26:13.499Z,72.34
2022-07-29T22:28:41.727Z,72.33
2022-07-29T22:31:10.024Z,72.56
2022-07-29T22:33:39.697Z,72.42
2022-07-29T22:36:08.821Z,72.50
2022-07-29T22:38:37.136Z,72.40
2022-07-29T22:41:05.508Z,72.88
2022-07-29T22:43:33.729Z,72.87
2022-07-29T22:46:02.230Z,72.67
2022-07-29T22:48:30.514Z,72.89
2022-07-29T22:51:00.183Z,73.20
2022-07-29T22:53:28.474Z,73.07
2022-07-29T22:55:56.785Z,73.19
2022-07-29T22:58:25.038Z,73.24
2022-07-29T23:00:53.309Z,73.53
2022-07-29T23:03:22.162Z,73.49
2022-07-29T23:05:51.813Z,73.52
2022-07-29T23:08:21.546Z,73.51
2022-07-29T23:10:49.812Z,73.47
2022-07-29T23:13:18.199Z,73.60
2022-07-29T23:15:46.543Z,73.57
2022-07-29T23:18:14.960Z,73.75
2022-07-29T23:20:44.369Z,73.87
2022-07-29T23:23:12.699Z,73.83
2022-07-29T23:25:42.464Z,74.26
2022-07-29T23:28:11.647Z,74.37
2022-07-29T23:30:42.084Z,74.50
2022-07-29T23:33:10.716Z,74.21
2022-07-29T23:35:39.038Z,74.35
2022-07-29T23:38:07.356Z,74.55
2022-07-29T23:40:35.917Z,74.53
2022-07-29T23:43:08.605Z,74.71
2022-07-29T23:45:44.982Z,74.84
2022-07-29T23:48:16.895Z,74.89
2022-07-29T23:50:45.312Z,75.14
2022-07-29T23:53:13.589Z,75.37
2022-07-29T23:55:42.021Z,75.19
2022-07-29T23:58:11.811Z,75.51
